Time;durP1;ratioP1;P1;durP2;ratioP2;P2;SDS_P1;SDS_P2;PMS_P1;PMS_P2;Temp;Humidity;BMP_temperature;BMP_pressure;BME280_temperature;BME280_humidity;BME280_pressure;Samples;Min_cycle;Max_cycle;Signal;HPM_P1;HPM_P2
2024/03/04 00:02:09;;;;;;;88.65;50.03;;;;;;;-146.18;100.00;67994.34;10354002;27;20071;-71
2024/03/04 00:07:06;;;;;;;84.57;47.30;;;;;;;-146.18;100.00;67994.34;10350929;28;20044;-71
2024/03/04 00:12:05;;;;;;;82.22;47.75;;;;;;;-146.18;100.00;67994.34;10348192;27;20465;-71
2024/03/04 00:17:03;;;;;;;84.78;47.70;;;;;;;-146.18;100.00;67994.34;10358702;27;20048;-71
2024/03/04 00:21:59;;;;;;;82.85;47.90;;;;;;;-146.18;100.00;67994.34;10348792;27;20052;-71
2024/03/04 00:26:56;;;;;;;90.82;50.90;;;;;;;-146.18;100.00;67994.34;10351609;27;20047;-70
2024/03/04 00:31:53;;;;;;;78.22;46.75;;;;;;;-146.18;100.00;67994.34;10349812;27;20048;-71
2024/03/04 00:36:51;;;;;;;87.38;49.17;;;;;;;-146.18;100.00;67994.34;10352759;27;20515;-71
2024/03/04 00:41:47;;;;;;;91.55;50.55;;;;;;;-146.18;100.00;67994.34;10350693;27;20078;-70
2024/03/04 00:46:45;;;;;;;84.85;50.13;;;;;;;-146.18;100.00;67994.34;10355329;27;20124;-71
2024/03/04 00:51:41;;;;;;;88.30;48.33;;;;;;;-146.18;100.00;67994.34;10351351;27;20040;-70
2024/03/04 00:56:38;;;;;;;80.80;47.00;;;;;;;-146.18;100.00;67994.34;10353675;27;20051;-70
2024/03/04 01:01:35;;;;;;;84.43;48.38;;;;;;;-146.18;100.00;67994.34;10344240;28;20052;-70
2024/03/04 01:06:32;;;;;;;83.47;48.17;;;;;;;-146.18;100.00;67994.34;10344643;27;20547;-69
2024/03/04 01:11:28;;;;;;;72.68;45.35;;;;;;;-146.18;100.00;67994.34;10349336;27;20047;-70
2024/03/04 01:16:25;;;;;;;84.95;48.05;;;;;;;-146.18;100.00;67994.34;10346940;27;20474;-70
2024/03/04 01:21:22;;;;;;;91.07;48.72;;;;;;;-146.18;100.00;67994.34;10353517;27;20048;-70
2024/03/04 01:26:18;;;;;;;85.45;49.55;;;;;;;-146.18;100.00;67994.34;10348580;27;20048;-69
2024/03/04 01:31:18;;;;;;;79.05;48.63;;;;;;;-146.18;100.00;67994.34;10350767;27;20044;-70
2024/03/04 01:36:15;;;;;;;78.82;47.45;;;;;;;-146.18;100.00;67994.34;10336408;27;20048;-70
2024/03/04 01:41:12;;;;;;;74.47;44.60;;;;;;;-146.18;100.00;67994.34;10348535;27;20226;-70
2024/03/04 01:46:09;;;;;;;83.97;48.42;;;;;;;-146.18;100.00;67994.34;10353601;27;20051;-70
2024/03/04 01:51:06;;;;;;;85.53;47.95;;;;;;;-146.18;100.00;67994.34;10356362;27;20396;-70
2024/03/04 01:56:05;;;;;;;85.32;48.78;;;;;;;-146.18;100.00;67994.34;10357565;27;20044;-70
2024/03/04 02:01:05;;;;;;;81.25;46.67;;;;;;;-146.18;100.00;67994.34;10357232;27;20319;-70
2024/03/04 02:06:03;;;;;;;72.63;44.55;;;;;;;-146.18;100.00;67994.34;10357446;27;20094;-69
2024/03/04 02:10:59;;;;;;;75.47;46.13;;;;;;;-146.18;100.00;67994.34;10360387;27;20051;-70
2024/03/04 02:15:56;;;;;;;79.53;46.72;;;;;;;-146.18;100.00;67994.34;10345384;27;20500;-70
2024/03/04 02:20:57;;;;;;;79.70;47.35;;;;;;;-146.18;100.00;67994.34;10362009;27;20511;-70
2024/03/04 02:25:56;;;;;;;76.00;45.03;;;;;;;-146.18;100.00;67994.34;10354954;27;20044;-70
2024/03/04 02:30:55;;;;;;;77.85;46.58;;;;;;;-146.18;100.00;67994.34;10350389;27;20496;-70
2024/03/04 02:35:53;;;;;;;76.47;46.17;;;;;;;-146.18;100.00;67994.34;10354003;27;20703;-70
2024/03/04 02:40:50;;;;;;;78.65;46.90;;;;;;;-146.18;100.00;67994.34;10358103;27;20047;-70
2024/03/04 02:45:46;;;;;;;67.35;42.60;;;;;;;-146.18;100.00;67994.34;10352998;27;20044;-70
2024/03/04 02:50:43;;;;;;;75.80;46.75;;;;;;;-146.18;100.00;67994.34;10355134;27;20047;-71
2024/03/04 02:55:39;;;;;;;72.90;44.63;;;;;;;-146.18;100.00;67994.34;10353246;27;20044;-70
2024/03/04 03:00:37;;;;;;;71.40;45.92;;;;;;;-146.18;100.00;67994.34;10354417;27;20066;-70
2024/03/04 03:05:33;;;;;;;74.28;45.88;;;;;;;-146.18;100.00;67994.34;10350899;28;20515;-70
2024/03/04 03:10:30;;;;;;;69.88;43.45;;;;;;;-146.18;100.00;67994.34;10356970;27;20048;-70
2024/03/04 03:15:27;;;;;;;72.63;42.45;;;;;;;-146.18;100.00;67994.34;10360473;27;20709;-70
2024/03/04 03:20:23;;;;;;;71.00;43.97;;;;;;;-146.18;100.00;67994.34;10354083;28;20496;-70
2024/03/04 03:25:20;;;;;;;71.63;45.28;;;;;;;-146.18;100.00;67994.34;10346754;27;20044;-70
2024/03/04 03:30:16;;;;;;;71.85;45.88;;;;;;;-146.18;100.00;67994.34;10357385;27;20415;-70
2024/03/04 03:35:13;;;;;;;72.30;44.60;;;;;;;-146.18;100.00;67994.34;10344573;27;20461;-70
2024/03/04 03:40:10;;;;;;;71.13;45.05;;;;;;;-146.18;100.00;67994.34;10347293;27;20048;-69
2024/03/04 03:45:08;;;;;;;65.85;42.45;;;;;;;-146.18;100.00;67994.34;10345402;27;20079;-69
2024/03/04 03:50:05;;;;;;;69.25;44.80;;;;;;;-146.18;100.00;67994.34;10355923;27;20219;-70
2024/03/04 03:55:02;;;;;;;64.72;42.80;;;;;;;-146.18;100.00;67994.34;10343897;27;20244;-70
2024/03/04 03:59:59;;;;;;;63.67;41.60;;;;;;;-146.18;100.00;67994.34;10342635;28;20048;-70
2024/03/04 04:04:55;;;;;;;70.25;43.78;;;;;;;-146.18;100.00;67994.34;10351695;27;20135;-70
2024/03/04 04:09:52;;;;;;;76.57;44.60;;;;;;;-146.18;100.00;67994.34;10347513;27;20079;-70
2024/03/04 04:14:48;;;;;;;70.55;46.78;;;;;;;-146.18;100.00;67994.34;10349855;27;20036;-69
2024/03/04 04:19:45;;;;;;;71.15;45.78;;;;;;;-146.18;100.00;67994.34;10360634;27;20044;-70
2024/03/04 04:24:42;;;;;;;69.63;44.65;;;;;;;-146.18;100.00;67994.34;10357928;27;20551;-70
2024/03/04 04:29:39;;;;;;;73.40;46.60;;;;;;;-146.18;100.00;67994.34;10341147;27;20104;-70
2024/03/04 04:34:36;;;;;;;74.93;44.25;;;;;;;-146.18;100.00;67994.34;10343969;27;20133;-70
2024/03/04 04:39:33;;;;;;;72.57;45.88;;;;;;;-146.18;100.00;67994.34;10335316;27;20048;-70
2024/03/04 04:44:29;;;;;;;73.97;45.72;;;;;;;-146.18;100.00;67994.34;10349130;27;20640;-70
2024/03/04 04:49:25;;;;;;;66.68;44.20;;;;;;;-146.18;100.00;67994.34;10340074;27;20073;-70
2024/03/04 04:54:22;;;;;;;74.68;44.80;;;;;;;-146.18;100.00;67994.34;10349197;27;20043;-70
2024/03/04 04:59:19;;;;;;;74.00;45.13;;;;;;;-146.18;100.00;67994.34;10357024;27;20065;-70
2024/03/04 05:04:18;;;;;;;76.32;47.15;;;;;;;-146.18;100.00;67994.34;10352537;27;20062;-70
2024/03/04 05:09:35;;;;;;;69.32;45.00;;;;;;;-146.18;100.00;67994.34;10339377;27;20040;-71
2024/03/04 05:14:32;;;;;;;64.45;43.38;;;;;;;-146.18;100.00;67994.34;10356158;27;20487;-71
2024/03/04 05:19:35;;;;;;;66.95;44.88;;;;;;;-146.18;100.00;67994.34;10346905;27;20055;-71
2024/03/04 05:24:32;;;;;;;62.40;43.05;;;;;;;-146.18;100.00;67994.34;10345898;27;20036;-72
2024/03/04 05:29:28;;;;;;;68.47;44.33;;;;;;;-146.18;100.00;67994.34;10355342;27;20044;-71
2024/03/04 05:34:25;;;;;;;73.03;45.88;;;;;;;-146.18;100.00;67994.34;10355177;27;20044;-72
2024/03/04 05:39:22;;;;;;;73.68;46.58;;;;;;;-146.18;100.00;67994.34;10347066;27;20089;-70
2024/03/04 05:44:20;;;;;;;67.50;45.35;;;;;;;-146.18;100.00;67994.34;10354233;27;20101;-71
2024/03/04 05:49:16;;;;;;;70.55;44.97;;;;;;;-146.18;100.00;67994.34;10350597;27;20047;-71
2024/03/04 05:54:13;;;;;;;70.43;45.53;;;;;;;-146.18;100.00;67994.34;10354768;28;20052;-72
2024/03/04 05:59:09;;;;;;;72.75;47.38;;;;;;;-146.18;100.00;67994.34;10352897;27;20113;-70
2024/03/04 06:04:06;;;;;;;71.05;45.38;;;;;;;-146.18;100.00;67994.34;10337551;28;20109;-72
2024/03/04 06:09:04;;;;;;;81.80;46.92;;;;;;;-146.18;100.00;67994.34;10346197;27;20538;-70
2024/03/04 06:14:01;;;;;;;76.50;45.92;;;;;;;-146.18;100.00;67994.34;10350292;27;20094;-70
2024/03/04 06:18:57;;;;;;;79.57;48.08;;;;;;;-146.18;100.00;67994.34;10350871;27;20098;-70
2024/03/04 06:23:54;;;;;;;73.05;46.67;;;;;;;-146.18;100.00;67994.34;10362139;27;20047;-70
2024/03/04 06:28:50;;;;;;;71.75;45.38;;;;;;;-146.18;100.00;67994.34;10359292;27;20118;-71
2024/03/04 06:33:46;;;;;;;71.93;46.17;;;;;;;-146.18;100.00;67994.34;10357806;27;20353;-70
2024/03/04 06:38:50;;;;;;;71.10;45.33;;;;;;;-146.18;100.00;67994.34;10362972;27;20564;-70
2024/03/04 06:43:46;;;;;;;75.20;47.92;;;;;;;-146.18;100.00;67994.34;10345397;27;20122;-71
2024/03/04 06:48:43;;;;;;;80.82;47.15;;;;;;;-146.18;100.00;67994.34;10345074;27;20508;-70
2024/03/04 06:53:40;;;;;;;81.35;50.45;;;;;;;-146.18;100.00;67994.34;10354582;27;20043;-71
2024/03/04 06:58:36;;;;;;;81.88;49.50;;;;;;;-146.18;100.00;67994.34;10356108;27;20048;-71
2024/03/04 07:03:33;;;;;;;77.15;48.50;;;;;;;-146.18;100.00;67994.34;10352926;27;20048;-69
2024/03/04 07:08:30;;;;;;;84.65;48.42;;;;;;;-146.18;100.00;67994.34;10355717;27;20503;-72
2024/03/04 07:13:29;;;;;;;80.15;48.28;;;;;;;-146.18;100.00;67994.34;10353463;27;20048;-73
2024/03/04 07:18:31;;;;;;;83.28;47.85;;;;;;;-146.18;100.00;67994.34;10341834;28;20055;-70
2024/03/04 07:23:28;;;;;;;80.40;47.58;;;;;;;-146.18;100.00;67994.34;10356413;27;20044;-70
2024/03/04 07:28:24;;;;;;;87.72;50.70;;;;;;;-146.18;100.00;67994.34;10357294;27;20064;-70
2024/03/04 07:33:21;;;;;;;85.95;48.08;;;;;;;-146.18;100.00;67994.34;10351420;27;20048;-72
2024/03/04 07:38:17;;;;;;;80.65;47.47;;;;;;;-146.18;100.00;67994.34;10355028;27;20043;-71
2024/03/04 07:43:13;;;;;;;75.38;45.22;;;;;;;-146.18;100.00;67994.34;10343220;27;20052;-72
2024/03/04 07:48:10;;;;;;;80.38;47.05;;;;;;;-146.18;100.00;67994.34;10347402;28;20040;-71
2024/03/04 07:53:07;;;;;;;82.18;49.05;;;;;;;-146.18;100.00;67994.34;10354115;27;20036;-70
2024/03/04 07:58:03;;;;;;;83.45;48.42;;;;;;;-146.18;100.00;67994.34;10351004;27;20507;-70
2024/03/04 08:03:00;;;;;;;75.47;45.78;;;;;;;-146.18;100.00;67994.34;10350527;27;20139;-70
2024/03/04 08:07:56;;;;;;;77.47;45.88;;;;;;;-146.18;100.00;67994.34;10340158;28;20044;-70
2024/03/04 08:12:53;;;;;;;85.15;47.92;;;;;;;-146.18;100.00;67994.34;10343946;27;20052;-71
2024/03/04 08:17:49;;;;;;;83.22;47.05;;;;;;;-146.18;100.00;67994.34;10353216;27;20447;-70
2024/03/04 08:22:51;;;;;;;79.60;46.85;;;;;;;-146.18;100.00;67994.34;10341090;28;20427;-72
2024/03/04 08:27:49;;;;;;;79.82;46.47;;;;;;;-146.18;100.00;67994.34;10350360;27;20580;-70
2024/03/04 08:32:46;;;;;;;70.07;44.90;;;;;;;-146.18;100.00;67994.34;10347533;27;20055;-70
2024/03/04 08:37:42;;;;;;;75.47;43.03;;;;;;;-146.18;100.00;67994.34;10354362;27;20048;-70
2024/03/04 08:42:40;;;;;;;71.05;41.53;;;;;;;-146.18;100.00;67994.34;10342947;28;20591;-70
2024/03/04 08:47:37;;;;;;;72.15;43.03;;;;;;;-146.18;100.00;67994.34;10347032;27;20044;-70
2024/03/04 08:52:33;;;;;;;71.10;42.78;;;;;;;-146.18;100.00;67994.34;10350166;27;20105;-70
2024/03/04 08:57:30;;;;;;;78.25;45.28;;;;;;;-146.18;100.00;67994.34;10362461;27;20131;-70
2024/03/04 09:02:26;;;;;;;72.72;43.60;;;;;;;-146.18;100.00;67994.34;10360689;27;20097;-70
2024/03/04 09:07:26;;;;;;;66.07;40.65;;;;;;;-146.18;100.00;67994.34;10360376;27;20044;-70
2024/03/04 09:12:25;;;;;;;71.57;43.55;;;;;;;-146.18;100.00;67994.34;10367466;27;20044;-70
2024/03/04 09:17:21;;;;;;;69.40;44.53;;;;;;;-146.18;100.00;67994.34;10346669;28;20667;-70
2024/03/04 09:22:18;;;;;;;68.78;43.13;;;;;;;-146.18;100.00;67994.34;10361139;27;20071;-70
2024/03/04 09:27:14;;;;;;;63.70;41.42;;;;;;;-146.18;100.00;67994.34;10358604;27;20040;-70
2024/03/04 09:32:11;;;;;;;73.60;43.78;;;;;;;-146.18;100.00;67994.34;10357214;27;20048;-70
2024/03/04 09:37:07;;;;;;;73.68;44.70;;;;;;;-146.18;100.00;67994.34;10349825;27;20044;-71
2024/03/04 09:42:04;;;;;;;75.22;46.38;;;;;;;-146.18;100.00;67994.34;10351833;27;20052;-71
2024/03/04 09:47:01;;;;;;;77.72;44.30;;;;;;;-146.18;100.00;67994.34;10354862;27;20045;-70
2024/03/04 09:51:59;;;;;;;70.75;43.92;;;;;;;-146.18;100.00;67994.34;10355985;27;20074;-70
2024/03/04 09:56:56;;;;;;;56.70;37.78;;;;;;;-146.18;100.00;67994.34;10358272;27;20048;-72
2024/03/04 10:01:57;;;;;;;72.70;45.40;;;;;;;-146.18;100.00;67994.34;10360700;27;20066;-70
2024/03/04 10:06:54;;;;;;;71.28;46.38;;;;;;;-146.18;100.00;67994.34;10357655;27;20503;-72
2024/03/04 10:11:51;;;;;;;71.40;44.60;;;;;;;-146.18;100.00;67994.34;10354708;27;20044;-72
2024/03/04 10:16:47;;;;;;;77.15;45.60;;;;;;;-146.18;100.00;67994.34;10357267;27;20469;-72
2024/03/04 10:21:44;;;;;;;71.78;43.30;;;;;;;-146.18;100.00;67994.34;10354050;27;20058;-70
2024/03/04 10:26:45;;;;;;;72.72;43.60;;;;;;;-146.18;100.00;67994.34;10358719;27;20036;-72
2024/03/04 10:31:51;;;;;;;76.07;46.20;;;;;;;-146.18;100.00;67994.34;10356283;27;20048;-72
2024/03/04 10:36:48;;;;;;;73.95;44.75;;;;;;;-146.18;100.00;67994.34;10347832;27;20060;-71
2024/03/04 10:41:47;;;;;;;74.45;44.40;;;;;;;-146.18;100.00;67994.34;10361958;27;20044;-72
2024/03/04 10:46:44;;;;;;;73.40;46.17;;;;;;;-146.18;100.00;67994.34;10353338;27;20046;-72
2024/03/04 10:51:40;;;;;;;80.40;47.10;;;;;;;-146.18;100.00;67994.34;10348969;27;20079;-72
2024/03/04 10:56:49;;;;;;;72.13;43.72;;;;;;;-146.18;100.00;67994.34;10358550;27;20126;-72
2024/03/04 11:01:46;;;;;;;75.90;47.33;;;;;;;-146.18;100.00;67994.34;10354431;27;20056;-70
2024/03/04 11:06:43;;;;;;;77.95;45.40;;;;;;;-146.18;100.00;67994.34;10353552;27;20044;-70
2024/03/04 11:11:47;;;;;;;72.63;47.30;;;;;;;-146.18;100.00;67994.34;10348348;27;20143;-71
2024/03/04 11:16:57;;;;;;;74.28;44.65;;;;;;;-146.18;100.00;67994.34;10356487;27;20040;-70
2024/03/04 11:21:56;;;;;;;73.75;45.13;;;;;;;-146.18;100.00;67994.34;10358227;27;20104;-70
2024/03/04 11:26:54;;;;;;;78.38;48.25;;;;;;;-146.18;100.00;67994.34;10357229;27;20044;-70
2024/03/04 11:31:56;;;;;;;71.60;45.20;;;;;;;-146.18;100.00;67994.34;10360334;27;20430;-70
2024/03/04 11:36:57;;;;;;;66.68;44.28;;;;;;;-146.18;100.00;67994.34;10345854;27;20125;-71
2024/03/04 11:41:54;;;;;;;63.92;42.65;;;;;;;-146.18;100.00;67994.34;10356051;27;20533;-71
2024/03/04 11:46:51;;;;;;;67.22;43.58;;;;;;;-146.18;100.00;67994.34;10346307;27;20044;-71
2024/03/04 11:52:04;;;;;;;70.78;45.92;;;;;;;-146.18;100.00;67994.34;10350281;27;20127;-73
2024/03/04 11:57:07;;;;;;;62.15;42.22;;;;;;;-146.18;100.00;67994.34;10345906;27;20040;-70
2024/03/04 12:02:08;;;;;;;64.05;41.28;;;;;;;-146.18;100.00;67994.34;10353194;27;20129;-70
2024/03/04 12:07:06;;;;;;;61.23;41.90;;;;;;;-146.18;100.00;67994.34;10350258;28;20036;-72
2024/03/04 12:12:06;;;;;;;61.25;42.33;;;;;;;-146.18;100.00;67994.34;10349273;28;20044;-72
2024/03/04 12:17:04;;;;;;;56.75;41.30;;;;;;;-146.18;100.00;67994.34;10339777;27;20054;-72
2024/03/04 12:22:00;;;;;;;53.63;38.45;;;;;;;-146.18;100.00;67994.34;10356884;27;20044;-72
2024/03/04 12:26:57;;;;;;;53.47;39.15;;;;;;;-146.18;100.00;67994.34;10347596;27;20526;-72
2024/03/04 12:31:54;;;;;;;51.60;36.88;;;;;;;-146.18;100.00;67994.34;10342237;27;20052;-71
2024/03/04 12:36:51;;;;;;;51.72;37.05;;;;;;;-146.18;100.00;67994.34;10345041;27;20044;-71
2024/03/04 12:41:50;;;;;;;55.35;39.03;;;;;;;-146.18;100.00;67994.34;10356624;27;20459;-70
2024/03/04 12:46:48;;;;;;;47.88;35.72;;;;;;;-146.18;100.00;67994.34;10342441;27;20062;-72
2024/03/04 12:51:48;;;;;;;48.38;35.15;;;;;;;-146.18;100.00;67994.34;10357097;28;20139;-73
2024/03/04 12:56:45;;;;;;;42.35;32.63;;;;;;;-146.18;100.00;67994.34;10357836;28;20044;-72
2024/03/04 13:01:41;;;;;;;49.30;35.13;;;;;;;-146.18;100.00;67994.34;10343905;27;20052;-71
2024/03/04 13:06:38;;;;;;;45.78;34.22;;;;;;;-146.18;100.00;67994.34;10346358;27;20043;-71
2024/03/04 13:11:34;;;;;;;40.67;32.33;;;;;;;-146.18;100.00;67994.34;10352341;27;20064;-72
2024/03/04 13:16:31;;;;;;;40.65;31.42;;;;;;;-146.18;100.00;67994.34;10354579;27;20044;-71
2024/03/04 13:21:27;;;;;;;36.35;30.42;;;;;;;-146.18;100.00;67994.34;10351160;27;20036;-73
2024/03/04 13:26:25;;;;;;;35.45;29.85;;;;;;;-146.18;100.00;67994.34;10350635;27;20059;-72
2024/03/04 13:31:22;;;;;;;43.67;32.63;;;;;;;-146.18;100.00;67994.34;10352206;27;20396;-71
2024/03/04 13:36:18;;;;;;;38.70;30.40;;;;;;;-146.18;100.00;67994.34;10349246;27;20048;-72
2024/03/04 13:41:16;;;;;;;38.67;29.52;;;;;;;-146.18;100.00;67994.34;10348747;27;20065;-72
2024/03/04 13:46:12;;;;;;;40.88;29.58;;;;;;;-146.18;100.00;67994.34;10367587;27;20054;-72
2024/03/04 13:51:09;;;;;;;36.95;30.33;;;;;;;-146.18;100.00;67994.34;10360216;27;20040;-71
2024/03/04 13:56:07;;;;;;;39.33;29.60;;;;;;;-146.18;100.00;67994.34;10369634;27;20048;-71
2024/03/04 14:01:04;;;;;;;36.03;29.33;;;;;;;-146.18;100.00;67994.34;10368841;27;20060;-72
2024/03/04 14:06:01;;;;;;;36.67;28.70;;;;;;;-146.18;100.00;67994.34;10363975;27;20070;-72
2024/03/04 14:10:58;;;;;;;37.28;29.10;;;;;;;-146.18;100.00;67994.34;10358308;27;20050;-71
2024/03/04 14:15:56;;;;;;;38.97;30.02;;;;;;;-146.18;100.00;67994.34;10359686;27;20670;-71
2024/03/04 14:20:53;;;;;;;35.63;30.10;;;;;;;-146.18;100.00;67994.34;10364098;27;20079;-72
2024/03/04 14:25:50;;;;;;;37.58;29.80;;;;;;;-146.18;100.00;67994.34;10351622;28;20047;-69
2024/03/04 14:30:46;;;;;;;45.53;29.70;;;;;;;-146.18;100.00;67994.34;10361832;28;20048;-72
2024/03/04 14:35:43;;;;;;;44.33;30.10;;;;;;;-146.18;100.00;67994.34;10359129;27;20040;-71
2024/03/04 14:40:40;;;;;;;43.20;29.70;;;;;;;-146.18;100.00;67994.34;10361955;27;20517;-71
2024/03/04 14:45:37;;;;;;;40.67;28.90;;;;;;;-146.18;100.00;67994.34;10348456;27;20123;-71
2024/03/04 14:50:34;;;;;;;42.45;28.83;;;;;;;-146.18;100.00;67994.34;10363523;27;20040;-71
2024/03/04 14:55:30;;;;;;;33.97;26.33;;;;;;;-146.18;100.00;67994.34;10352984;28;20504;-71
2024/03/04 15:00:28;;;;;;;40.75;28.38;;;;;;;-146.18;100.00;67994.34;10361459;27;20070;-71
2024/03/04 15:05:25;;;;;;;37.63;28.40;;;;;;;-146.18;100.00;67994.34;10367894;27;20048;-71
2024/03/04 15:10:25;;;;;;;38.30;28.40;;;;;;;-146.18;100.00;67994.34;10356155;27;20059;-71
2024/03/04 15:15:21;;;;;;;34.75;26.13;;;;;;;-146.18;100.00;67994.34;10349905;27;20060;-71
2024/03/04 15:20:18;;;;;;;36.17;26.95;;;;;;;-146.18;100.00;67994.34;10369229;27;20052;-71
2024/03/04 15:25:15;;;;;;;39.63;27.42;;;;;;;-146.18;100.00;67994.34;10359535;27;20043;-71
2024/03/04 15:30:14;;;;;;;34.72;27.25;;;;;;;-146.18;100.00;67994.34;10357313;27;20442;-71
2024/03/04 15:35:10;;;;;;;31.00;23.95;;;;;;;-146.18;100.00;67994.34;10355518;27;20048;-71
2024/03/04 15:40:08;;;;;;;31.23;23.67;;;;;;;-146.18;100.00;67994.34;10352457;27;20066;-71
2024/03/04 15:45:05;;;;;;;39.45;27.45;;;;;;;-146.18;100.00;67994.34;10355942;27;20052;-71
2024/03/04 15:50:01;;;;;;;41.40;27.70;;;;;;;-146.18;100.00;67994.34;10344146;27;20056;-70
2024/03/04 15:54:58;;;;;;;26.52;21.17;;;;;;;-146.18;100.00;67994.34;10343565;28;20063;-71
2024/03/04 15:59:55;;;;;;;42.30;26.20;;;;;;;-146.18;100.00;67994.34;10350105;28;20052;-71
2024/03/04 16:04:51;;;;;;;38.17;26.48;;;;;;;-146.18;100.00;67994.34;10354335;28;20067;-71
2024/03/04 16:09:48;;;;;;;37.97;25.25;;;;;;;-146.18;100.00;67994.34;10342979;27;21339;-70
2024/03/04 16:14:44;;;;;;;35.13;25.75;;;;;;;-146.18;100.00;67994.34;10350924;27;20097;-71
2024/03/04 16:19:42;;;;;;;32.00;22.65;;;;;;;-146.18;100.00;67994.34;10344582;28;20405;-71
2024/03/04 16:24:39;;;;;;;31.88;22.50;;;;;;;-146.18;100.00;67994.34;10342468;28;20044;-71
2024/03/04 16:29:38;;;;;;;35.90;21.42;;;;;;;-146.18;100.00;67994.34;10340564;27;20480;-71
2024/03/04 16:34:35;;;;;;;32.88;21.77;;;;;;;-146.18;100.00;67994.34;10345371;28;20104;-71
2024/03/04 16:39:32;;;;;;;25.02;19.50;;;;;;;-146.18;100.00;67994.34;10352535;27;20071;-71
2024/03/04 16:44:28;;;;;;;29.42;22.08;;;;;;;-146.18;100.00;67994.34;10353111;27;20160;-71
2024/03/04 16:49:24;;;;;;;36.45;24.10;;;;;;;-146.18;100.00;67994.34;10350904;27;20052;-71
2024/03/04 16:54:21;;;;;;;36.08;22.23;;;;;;;-146.18;100.00;67994.34;10349700;27;20052;-71
2024/03/04 16:59:17;;;;;;;30.98;21.88;;;;;;;-146.18;100.00;67994.34;10349700;28;20127;-71
2024/03/04 17:04:14;;;;;;;34.92;21.55;;;;;;;-146.18;100.00;67994.34;10353948;28;20581;-71
2024/03/04 17:09:10;;;;;;;39.55;20.48;;;;;;;-146.18;100.00;67994.34;10344476;27;20507;-71
2024/03/04 17:14:07;;;;;;;37.72;20.98;;;;;;;-146.18;100.00;67994.34;10342447;27;20068;-72
2024/03/04 17:19:03;;;;;;;26.02;19.75;;;;;;;-146.18;100.00;67994.34;10361621;27;20048;-71
2024/03/04 17:24:00;;;;;;;30.25;20.88;;;;;;;-146.18;100.00;67994.34;10348323;28;20091;-71
2024/03/04 17:28:56;;;;;;;32.15;22.30;;;;;;;-146.18;100.00;67994.34;10362697;27;20051;-71
2024/03/04 17:33:53;;;;;;;26.30;20.67;;;;;;;-146.18;100.00;67994.34;10360373;27;20059;-71
2024/03/04 17:38:49;;;;;;;30.08;20.38;;;;;;;-146.18;100.00;67994.34;10342302;27;20052;-71
2024/03/04 17:43:47;;;;;;;33.97;22.40;;;;;;;-146.18;100.00;67994.34;10352008;28;20666;-71
2024/03/04 17:48:43;;;;;;;23.42;18.60;;;;;;;-146.18;100.00;67994.34;10347573;27;20047;-71
2024/03/04 17:53:40;;;;;;;29.42;20.17;;;;;;;-146.18;100.00;67994.34;10356505;28;20044;-71
2024/03/04 17:58:36;;;;;;;27.17;20.85;;;;;;;-146.18;100.00;67994.34;10350087;27;20035;-71
2024/03/04 18:03:33;;;;;;;21.55;17.73;;;;;;;-146.18;100.00;67994.34;10351081;27;20044;-71
2024/03/04 18:08:29;;;;;;;38.63;23.17;;;;;;;-146.18;100.00;67994.34;10365950;27;20039;-70
2024/03/04 18:13:26;;;;;;;33.42;23.23;;;;;;;-146.18;100.00;67994.34;10355337;27;20067;-71
2024/03/04 18:18:23;;;;;;;40.33;24.48;;;;;;;-146.18;100.00;67994.34;10353872;27;20686;-70
2024/03/04 18:23:19;;;;;;;35.08;24.33;;;;;;;-146.18;100.00;67994.34;10350561;27;20070;-71
2024/03/04 18:28:18;;;;;;;31.08;23.35;;;;;;;-146.18;100.00;67994.34;10338844;27;20072;-71
2024/03/04 18:33:15;;;;;;;38.15;25.80;;;;;;;-146.18;100.00;67994.34;10331079;27;20574;-71
2024/03/04 18:38:11;;;;;;;32.08;22.05;;;;;;;-146.18;100.00;67994.34;10343954;27;20484;-71
2024/03/04 18:43:11;;;;;;;39.00;25.60;;;;;;;-146.18;100.00;67994.34;10341986;28;20073;-71
2024/03/04 18:48:08;;;;;;;35.97;25.20;;;;;;;-146.18;100.00;67994.34;10345943;27;20091;-72
2024/03/04 18:53:05;;;;;;;33.25;25.48;;;;;;;-146.18;100.00;67994.34;10343302;27;20047;-71
2024/03/04 18:58:01;;;;;;;37.90;25.05;;;;;;;-146.18;100.00;67994.34;10347015;27;20032;-71
2024/03/04 19:02:58;;;;;;;34.97;23.95;;;;;;;-146.18;100.00;67994.34;10355747;27;20048;-71
2024/03/04 19:07:54;;;;;;;38.30;24.35;;;;;;;-146.18;100.00;67994.34;10349727;27;20711;-71
2024/03/04 19:12:52;;;;;;;32.42;24.73;;;;;;;-146.18;100.00;67994.34;10348792;27;20119;-71
2024/03/04 19:17:48;;;;;;;35.78;24.05;;;;;;;-146.18;100.00;67994.34;10348915;27;20055;-72
2024/03/04 19:22:45;;;;;;;34.97;25.60;;;;;;;-146.18;100.00;67994.34;10360439;27;20051;-71
2024/03/04 19:27:41;;;;;;;32.90;22.48;;;;;;;-146.18;100.00;67994.34;10361015;27;20093;-71
2024/03/04 19:32:39;;;;;;;33.40;23.20;;;;;;;-146.18;100.00;67994.34;10351437;27;20044;-71
2024/03/04 19:37:36;;;;;;;35.38;24.73;;;;;;;-146.18;100.00;67994.34;10347184;27;20575;-71
2024/03/04 19:42:33;;;;;;;40.72;27.02;;;;;;;-146.18;100.00;67994.34;10352514;27;20048;-71
2024/03/04 19:47:29;;;;;;;36.85;26.95;;;;;;;-146.18;100.00;67994.34;10343564;27;20040;-71
2024/03/04 19:52:27;;;;;;;37.97;26.73;;;;;;;-146.18;100.00;67994.34;10349540;27;20105;-71
2024/03/04 19:57:23;;;;;;;36.80;27.17;;;;;;;-146.18;100.00;67994.34;10348133;27;20069;-71
2024/03/04 20:02:31;;;;;;;33.53;24.65;;;;;;;-146.18;100.00;67994.34;10355280;27;20451;-71
2024/03/04 20:07:28;;;;;;;36.05;26.45;;;;;;;-146.18;100.00;67994.34;10355016;27;20071;-71
2024/03/04 20:12:24;;;;;;;46.45;29.90;;;;;;;-146.18;100.00;67994.34;10344679;27;20112;-71
2024/03/04 20:17:22;;;;;;;36.00;25.05;;;;;;;-146.18;100.00;67994.34;10352019;27;20040;-71
2024/03/04 20:22:19;;;;;;;37.65;27.02;;;;;;;-146.18;100.00;67994.34;10352513;27;20075;-71
2024/03/04 20:27:16;;;;;;;40.25;28.08;;;;;;;-146.18;100.00;67994.34;10340711;27;20055;-71
2024/03/04 20:32:12;;;;;;;39.33;27.02;;;;;;;-146.18;100.00;67994.34;10349641;27;20044;-71
2024/03/04 20:37:09;;;;;;;36.38;25.85;;;;;;;-146.18;100.00;67994.34;10350658;27;20036;-71
2024/03/04 20:42:05;;;;;;;36.58;27.63;;;;;;;-146.18;100.00;67994.34;10349253;27;20050;-71
2024/03/04 20:47:02;;;;;;;34.47;25.05;;;;;;;-146.18;100.00;67994.34;10342221;27;20040;-71
2024/03/04 20:51:58;;;;;;;33.50;27.00;;;;;;;-146.18;100.00;67994.34;10359817;27;20056;-72
2024/03/04 20:56:55;;;;;;;34.78;24.65;;;;;;;-146.18;100.00;67994.34;10358439;27;20056;-71
2024/03/04 21:01:52;;;;;;;30.90;22.63;;;;;;;-146.18;100.00;67994.34;10361881;27;20071;-71
2024/03/04 21:06:49;;;;;;;32.45;22.13;;;;;;;-146.18;100.00;67994.34;10352971;28;20058;-71
2024/03/04 21:11:51;;;;;;;26.58;20.17;;;;;;;-146.18;100.00;67994.34;10358474;27;20550;-71
2024/03/04 21:16:48;;;;;;;30.10;21.65;;;;;;;-146.18;100.00;67994.34;10350450;27;20080;-70
2024/03/04 21:21:45;;;;;;;29.92;21.30;;;;;;;-146.18;100.00;67994.34;10358934;27;20139;-70
2024/03/04 21:26:41;;;;;;;28.55;19.95;;;;;;;-146.18;100.00;67994.34;10360695;27;20044;-72
2024/03/04 21:31:38;;;;;;;28.45;18.95;;;;;;;-146.18;100.00;67994.34;10359332;27;20446;-72
2024/03/04 21:36:35;;;;;;;29.70;18.50;;;;;;;-146.18;100.00;67994.34;10363365;27;20742;-72
2024/03/04 21:41:31;;;;;;;23.98;18.60;;;;;;;-146.18;100.00;67994.34;10360122;27;20534;-72
2024/03/04 21:46:29;;;;;;;26.23;18.50;;;;;;;-146.18;100.00;67994.34;10368849;27;20055;-72